createdAt,value
2017-12-24T00:00:22.798Z,0
2017-12-24T00:01:23.525Z,0
2017-12-24T00:02:23.575Z,0
2017-12-24T00:03:23.574Z,0
2017-12-24T00:04:23.485Z,0
2017-12-24T00:05:23.362Z,0
2017-12-24T00:06:23.250Z,0
2017-12-24T00:07:23.434Z,0
2017-12-24T00:08:23.883Z,0
2017-12-24T00:09:23.831Z,0
2017-12-24T00:10:24.633Z,0
2017-12-24T00:11:24.847Z,0
2017-12-24T00:12:24.575Z,0
2017-12-24T00:13:24.750Z,0
2017-12-24T00:14:25.201Z,0
2017-12-24T00:15:24.981Z,0
2017-12-24T00:16:25.438Z,0
2017-12-24T00:17:26.165Z,0
2017-12-24T00:18:26.276Z,0
2017-12-24T00:19:26.694Z,0
2017-12-24T00:20:26.808Z,0
2017-12-24T00:21:26.488Z,0
2017-12-24T00:22:26.638Z,0
2017-12-24T00:23:27.073Z,0
2017-12-24T00:24:27.538Z,0
2017-12-24T00:25:28.009Z,0
2017-12-24T00:26:28.867Z,0
2017-12-24T00:27:28.827Z,0
2017-12-24T00:28:28.364Z,0
2017-12-24T00:29:28.632Z,0
2017-12-24T00:30:28.943Z,0
2017-12-24T00:31:29.247Z,0
2017-12-24T00:32:29.319Z,0
2017-12-24T00:33:29.066Z,0
2017-12-24T00:34:29.663Z,0
2017-12-24T00:35:29.069Z,0
2017-12-24T00:36:29.089Z,0
2017-12-24T00:37:29.570Z,0
2017-12-24T00:38:29.604Z,0
2017-12-24T00:39:29.603Z,0
2017-12-24T00:40:29.782Z,0
2017-12-24T00:41:30.499Z,0
2017-12-24T00:42:30.273Z,0
2017-12-24T00:43:30.694Z,0
2017-12-24T00:44:30.743Z,0
2017-12-24T00:45:30.508Z,0
2017-12-24T00:46:30.352Z,0
2017-12-24T00:47:30.479Z,0
2017-12-24T00:48:30.744Z,0
2017-12-24T00:49:31.208Z,0
2017-12-24T00:50:31.293Z,0
2017-12-24T00:51:31.272Z,0
2017-12-24T00:52:31.005Z,0
2017-12-24T00:53:31.054Z,0
2017-12-24T00:54:31.508Z,0
2017-12-24T00:55:31.465Z,0
2017-12-24T00:56:31.315Z,0
2017-12-24T00:57:31.842Z,0
2017-12-24T00:58:31.275Z,0
2017-12-24T00:59:31.819Z,0
2017-12-24T01:00:32.540Z,0
2017-12-24T01:01:32.299Z,0
2017-12-24T01:02:32.474Z,0
2017-12-24T01:03:32.523Z,0
2017-12-24T01:04:33.075Z,0
2017-12-24T01:05:32.836Z,0
2017-12-24T01:06:33.068Z,0
2017-12-24T01:07:33.515Z,0
2017-12-24T01:08:34.000Z,0
2017-12-24T01:09:33.831Z,0
2017-12-24T01:10:34.159Z,0
2017-12-24T01:11:34.411Z,0
2017-12-24T01:12:34.392Z,0
2017-12-24T01:13:34.206Z,0
2017-12-24T01:14:33.970Z,0
2017-12-24T01:15:34.524Z,0
2017-12-24T01:16:34.457Z,0
2017-12-24T01:17:34.897Z,0
2017-12-24T01:18:35.103Z,0
2017-12-24T01:19:35.849Z,0
2017-12-24T01:20:36.015Z,0
2017-12-24T01:21:36.453Z,0
2017-12-24T01:22:36.956Z,0
2017-12-24T01:23:36.674Z,0
2017-12-24T01:24:36.697Z,0
2017-12-24T01:25:37.396Z,0
2017-12-24T01:26:37.056Z,0
2017-12-24T01:27:37.370Z,0
2017-12-24T01:28:37.606Z,0
2017-12-24T01:29:38.190Z,0
2017-12-24T01:30:37.667Z,0
2017-12-24T01:31:38.322Z,0
2017-12-24T01:32:38.311Z,0
2017-12-24T01:33:38.049Z,0
2017-12-24T01:34:38.008Z,0
2017-12-24T01:35:38.446Z,0
2017-12-24T01:36:38.648Z,0
2017-12-24T01:37:38.901Z,0
2017-12-24T01:38:38.691Z,0
2017-12-24T01:39:38.853Z,0
2017-12-24T01:40:39.609Z,0
2017-12-24T01:41:39.689Z,0
2017-12-24T01:42:39.364Z,0
2017-12-24T01:43:40.073Z,0
2017-12-24T01:44:39.842Z,0
2017-12-24T01:45:40.760Z,0
2017-12-24T01:46:39.926Z,0
2017-12-24T01:47:40.756Z,0
2017-12-24T01:48:40.493Z,0
2017-12-24T01:49:40.585Z,0
2017-12-24T01:50:40.544Z,0
2017-12-24T01:51:41.368Z,0
2017-12-24T01:52:41.047Z,0
2017-12-24T01:53:41.174Z,0
2017-12-24T01:54:40.930Z,0
2017-12-24T01:55:41.677Z,0
2017-12-24T01:56:41.521Z,0
2017-12-24T01:57:40.726Z,0
2017-12-24T01:58:41.823Z,0
2017-12-24T01:59:41.656Z,0
2017-12-24T02:00:41.430Z,0
2017-12-24T02:01:41.772Z,0
2017-12-24T02:02:41.949Z,0
2017-12-24T02:03:41.986Z,0
2017-12-24T02:04:42.914Z,0
2017-12-24T02:05:42.500Z,0
2017-12-24T02:06:42.884Z,0
2017-12-24T02:07:42.804Z,0
2017-12-24T02:08:42.730Z,0
2017-12-24T02:09:42.765Z,0
2017-12-24T02:10:42.932Z,0
2017-12-24T02:11:43.201Z,0
2017-12-24T02:12:44.712Z,0
2017-12-24T02:13:43.089Z,0
2017-12-24T02:14:43.129Z,0
2017-12-24T02:15:43.159Z,0
2017-12-24T02:16:42.936Z,0
2017-12-24T02:17:42.789Z,0
2017-12-24T02:18:43.252Z,0
2017-12-24T02:19:43.962Z,0
2017-12-24T02:20:46.129Z,0
2017-12-24T02:21:44.501Z,0
2017-12-24T02:22:44.737Z,0
2017-12-24T02:23:44.726Z,0
2017-12-24T02:24:44.663Z,0
2017-12-24T02:25:45.321Z,0
2017-12-24T02:26:44.706Z,0
2017-12-24T02:27:45.273Z,0
2017-12-24T02:28:45.506Z,0
2017-12-24T02:29:45.691Z,0
2017-12-24T02:30:45.756Z,0
2017-12-24T02:31:46.503Z,0
2017-12-24T02:32:46.261Z,0
2017-12-24T02:33:46.714Z,0
2017-12-24T02:34:47.157Z,0
2017-12-24T02:35:46.915Z,0
2017-12-24T02:36:47.355Z,0
2017-12-24T02:37:48.099Z,0
2017-12-24T02:38:48.111Z,0
2017-12-24T02:39:48.187Z,0
2017-12-24T02:40:48.045Z,0
2017-12-24T02:41:47.922Z,0
2017-12-24T02:42:48.119Z,0
2017-12-24T02:43:48.295Z,0
2017-12-24T02:44:48.054Z,0
2017-12-24T02:45:49.036Z,0
2017-12-24T02:46:49.229Z,0
2017-12-24T02:47:49.977Z,0
2017-12-24T02:48:49.221Z,0
2017-12-24T02:49:49.507Z,0
2017-12-24T02:50:50.235Z,0
2017-12-24T02:51:50.276Z,0
2017-12-24T02:52:50.038Z,0
2017-12-24T02:53:50.030Z,0
2017-12-24T02:54:50.489Z,0
2017-12-24T02:55:50.941Z,0
2017-12-24T02:56:51.977Z,0
2017-12-24T02:57:51.506Z,0
2017-12-24T02:58:51.972Z,0
2017-12-24T02:59:52.688Z,0
2017-12-24T03:00:52.190Z,0
2017-12-24T03:01:52.974Z,0
2017-12-24T03:02:53.034Z,0
2017-12-24T03:03:52.977Z,0
2017-12-24T03:04:52.997Z,0
2017-12-24T03:05:53.051Z,0
2017-12-24T03:06:53.206Z,0
2017-12-24T03:07:52.585Z,0
2017-12-24T03:08:53.187Z,0
2017-12-24T03:09:52.940Z,0
2017-12-24T03:10:53.170Z,0
2017-12-24T03:11:53.351Z,0
2017-12-24T03:12:53.387Z,0
2017-12-24T03:13:53.847Z,0
2017-12-24T03:14:54.278Z,0
2017-12-24T03:15:53.928Z,0
2017-12-24T03:16:54.743Z,0
2017-12-24T03:17:54.768Z,0
2017-12-24T03:18:54.669Z,0
2017-12-24T03:19:54.963Z,0
2017-12-24T03:20:54.628Z,0
2017-12-24T03:21:55.164Z,0
2017-12-24T03:22:55.950Z,0
2017-12-24T03:23:55.648Z,0
2017-12-24T03:24:56.107Z,0
2017-12-24T03:25:56.125Z,0
2017-12-24T03:26:56.283Z,0
2017-12-24T03:27:56.985Z,0
2017-12-24T03:28:56.815Z,0
2017-12-24T03:29:57.057Z,0
2017-12-24T03:30:56.978Z,0
2017-12-24T03:31:57.624Z,0
2017-12-24T03:32:57.602Z,0
2017-12-24T03:33:57.576Z,0
2017-12-24T03:34:57.609Z,0
2017-12-24T03:35:57.108Z,0
2017-12-24T03:36:57.656Z,0
2017-12-24T03:37:57.420Z,0
2017-12-24T03:38:58.305Z,0
2017-12-24T03:39:58.168Z,0
2017-12-24T03:40:58.086Z,0
2017-12-24T03:41:58.803Z,0
2017-12-24T03:42:58.814Z,0
2017-12-24T03:43:59.276Z,0
2017-12-24T03:44:59.265Z,0
2017-12-24T03:45:59.338Z,0
2017-12-24T03:46:59.333Z,0
2017-12-24T03:47:59.264Z,0
2017-12-24T03:48:59.323Z,0
2017-12-24T03:50:00.243Z,0
2017-12-24T03:50:59.337Z,0
2017-12-24T03:51:59.788Z,0
2017-12-24T03:52:59.648Z,0
2017-12-24T03:53:59.664Z,0
2017-12-24T03:55:00.700Z,0
2017-12-24T03:56:00.192Z,0
2017-12-24T03:57:00.080Z,0
2017-12-24T03:57:59.756Z,0
2017-12-24T03:59:00.015Z,0
2017-12-24T03:59:59.864Z,0
2017-12-24T04:01:00.422Z,0
2017-12-24T04:02:00.180Z,0
2017-12-24T04:03:00.712Z,0
2017-12-24T04:04:01.134Z,0
2017-12-24T04:05:00.944Z,0
2017-12-24T04:06:00.713Z,0
2017-12-24T04:07:01.233Z,0
2017-12-24T04:08:01.306Z,0
2017-12-24T04:09:01.405Z,0
2017-12-24T04:10:01.347Z,0
2017-12-24T04:11:01.356Z,0
2017-12-24T04:12:01.103Z,0
2017-12-24T04:13:01.288Z,0
2017-12-24T04:14:02.064Z,0
2017-12-24T04:15:02.047Z,0
2017-12-24T04:16:01.818Z,0
2017-12-24T04:17:01.831Z,0
2017-12-24T04:18:02.007Z,0
2017-12-24T04:19:02.577Z,0
2017-12-24T04:20:02.602Z,0
2017-12-24T04:21:02.640Z,0
2017-12-24T04:22:02.829Z,0
2017-12-24T04:23:02.824Z,0
2017-12-24T04:24:02.852Z,0
2017-12-24T04:25:03.062Z,0
2017-12-24T04:26:03.337Z,0
2017-12-24T04:27:03.527Z,0
2017-12-24T04:28:03.225Z,0
2017-12-24T04:29:03.776Z,0
2017-12-24T04:30:03.878Z,0
2017-12-24T04:31:03.817Z,0
2017-12-24T04:32:03.845Z,0
2017-12-24T04:33:03.589Z,0
2017-12-24T04:34:04.426Z,0
2017-12-24T04:35:04.195Z,0
2017-12-24T04:36:04.418Z,0
2017-12-24T04:37:04.216Z,0
2017-12-24T04:38:04.483Z,0
2017-12-24T04:39:04.006Z,0
2017-12-24T04:40:04.766Z,0
2017-12-24T04:41:04.736Z,0
2017-12-24T04:42:04.765Z,0
2017-12-24T04:43:04.795Z,0
2017-12-24T04:44:04.578Z,0
2017-12-24T04:45:05.678Z,0
2017-12-24T04:46:05.044Z,0
2017-12-24T04:47:05.763Z,0
2017-12-24T04:48:05.781Z,0
2017-12-24T04:49:05.804Z,0
2017-12-24T04:50:20.095Z,0
2017-12-24T04:51:05.808Z,0
2017-12-24T04:52:06.266Z,0
2017-12-24T04:53:06.167Z,0
2017-12-24T04:54:06.767Z,0
2017-12-24T04:55:06.808Z,0
2017-12-24T04:56:06.400Z,0
2017-12-24T04:57:07.116Z,0
2017-12-24T04:58:06.910Z,0
2017-12-24T04:59:06.740Z,0
2017-12-24T05:01:16.612Z,0
2017-12-24T05:02:16.271Z,0
2017-12-24T05:03:16.356Z,0
2017-12-24T05:04:16.504Z,0
2017-12-24T05:05:16.841Z,0
2017-12-24T05:06:17.359Z,0
2017-12-24T05:07:17.790Z,0
2017-12-24T05:08:18.883Z,0
2017-12-24T05:09:18.061Z,0
2017-12-24T05:10:18.442Z,0
2017-12-24T05:11:18.329Z,0
2017-12-24T05:12:17.736Z,0
2017-12-24T05:13:18.059Z,0
2017-12-24T05:14:18.320Z,0
2017-12-24T05:15:17.604Z,0
2017-12-24T05:16:18.689Z,0
2017-12-24T05:17:17.907Z,0
2017-12-24T05:18:19.459Z,0
2017-12-24T05:19:19.462Z,0
2017-12-24T05:20:19.023Z,0
2017-12-24T05:21:19.269Z,0
2017-12-24T05:22:20.016Z,0
2017-12-24T05:23:20.070Z,0
2017-12-24T05:24:19.135Z,0
2017-12-24T05:25:19.881Z,0
2017-12-24T05:26:19.651Z,0
2017-12-24T05:27:18.989Z,0
2017-12-24T05:28:19.235Z,0
2017-12-24T05:29:19.515Z,0
2017-12-24T05:30:20.030Z,0
2017-12-24T05:31:19.011Z,0
2017-12-24T05:32:19.473Z,0
2017-12-24T05:33:19.961Z,0
2017-12-24T05:34:19.937Z,0
2017-12-24T05:35:20.447Z,0
2017-12-24T05:36:20.634Z,0
2017-12-24T05:37:21.153Z,0
2017-12-24T05:38:21.394Z,0
2017-12-24T05:39:21.231Z,0
2017-12-24T05:40:21.632Z,0
2017-12-24T05:41:22.158Z,0
2017-12-24T05:42:22.102Z,0
2017-12-24T05:43:22.121Z,0
2017-12-24T05:44:22.140Z,0
2017-12-24T05:45:22.306Z,0
2017-12-24T05:46:22.744Z,0
2017-12-24T05:47:22.850Z,0
2017-12-24T05:48:23.262Z,0
2017-12-24T05:49:23.627Z,0
2017-12-24T05:50:24.130Z,0
2017-12-24T05:51:24.501Z,0
2017-12-24T05:52:24.390Z,0
2017-12-24T05:53:24.696Z,0
2017-12-24T05:54:25.091Z,0
2017-12-24T05:55:24.927Z,0
2017-12-24T05:56:25.102Z,0
2017-12-24T05:57:25.295Z,0
2017-12-24T05:58:25.703Z,0
2017-12-24T05:59:25.623Z,0
2017-12-24T06:00:30.514Z,0
2017-12-24T06:01:31.231Z,0
2017-12-24T06:02:31.002Z,0
2017-12-24T06:03:31.183Z,0
2017-12-24T06:04:30.950Z,0
2017-12-24T06:05:31.650Z,0
2017-12-24T06:06:32.158Z,0
2017-12-24T06:07:32.156Z,0
2017-12-24T06:08:32.297Z,0
2017-12-24T06:09:32.958Z,0
2017-12-24T06:10:32.844Z,0
2017-12-24T06:11:32.781Z,0
2017-12-24T06:12:33.281Z,0
2017-12-24T06:13:33.517Z,0
2017-12-24T06:14:33.694Z,0
2017-12-24T06:15:33.189Z,0
2017-12-24T06:16:33.857Z,0
2017-12-24T06:17:33.705Z,0
2017-12-24T06:18:33.427Z,0
2017-12-24T06:19:34.120Z,0
2017-12-24T06:20:33.932Z,0
2017-12-24T06:21:33.656Z,0
2017-12-24T06:22:34.090Z,0
2017-12-24T06:23:34.488Z,0
2017-12-24T06:24:34.746Z,0
2017-12-24T06:25:34.904Z,0
2017-12-24T06:26:35.474Z,0
2017-12-24T06:27:35.004Z,0
2017-12-24T06:28:35.685Z,0
2017-12-24T06:29:35.423Z,0
2017-12-24T06:30:35.528Z,0
2017-12-24T06:31:36.223Z,0
2017-12-24T06:32:35.530Z,0
2017-12-24T06:33:36.023Z,0
2017-12-24T06:34:36.191Z,0
2017-12-24T06:35:35.989Z,0
2017-12-24T06:36:36.297Z,0
2017-12-24T06:37:36.453Z,0
2017-12-24T06:38:36.832Z,0
2017-12-24T06:39:37.275Z,0
2017-12-24T06:40:37.436Z,0
2017-12-24T06:41:38.177Z,0
2017-12-24T06:42:37.635Z,0
2017-12-24T06:43:38.194Z,0
2017-12-24T06:44:38.259Z,0
2017-12-24T06:45:38.760Z,0
2017-12-24T06:46:38.269Z,0
2017-12-24T06:47:38.380Z,0
2017-12-24T06:48:38.008Z,0
2017-12-24T06:49:37.903Z,0
2017-12-24T06:50:38.750Z,0
2017-12-24T06:51:38.477Z,0
2017-12-24T06:52:38.825Z,0
2017-12-24T06:53:38.822Z,0
2017-12-24T06:54:39.306Z,0
2017-12-24T06:55:40.310Z,0
2017-12-24T06:56:40.014Z,0
2017-12-24T06:57:40.454Z,0
2017-12-24T06:58:39.976Z,0
2017-12-24T06:59:40.391Z,0
2017-12-24T07:00:40.470Z,0
2017-12-24T07:01:41.195Z,0
2017-12-24T07:02:41.263Z,0
2017-12-24T07:03:41.118Z,0
2017-12-24T07:04:41.305Z,0
2017-12-24T07:05:41.336Z,0
2017-12-24T07:06:41.411Z,0
2017-12-24T07:07:41.098Z,0
2017-12-24T07:08:41.794Z,0
2017-12-24T07:09:41.678Z,0
2017-12-24T07:10:41.451Z,0
2017-12-24T07:11:41.512Z,0
2017-12-24T07:12:40.875Z,0
2017-12-24T07:13:40.947Z,0
2017-12-24T07:14:41.718Z,0
2017-12-24T07:15:41.562Z,0
2017-12-24T07:16:41.998Z,0
2017-12-24T07:17:42.332Z,0
2017-12-24T07:18:41.919Z,0
2017-12-24T07:19:42.169Z,0
2017-12-24T07:20:42.361Z,0
2017-12-24T07:21:42.118Z,0
2017-12-24T07:22:42.635Z,0
2017-12-24T07:23:42.621Z,0
2017-12-24T07:24:43.079Z,0
2017-12-24T07:25:43.278Z,0
2017-12-24T07:26:44.044Z,0
2017-12-24T07:27:44.061Z,0
2017-12-24T07:28:44.062Z,0
2017-12-24T07:29:44.227Z,0
2017-12-24T07:30:44.262Z,0
2017-12-24T07:31:44.953Z,0
2017-12-24T07:32:45.099Z,0
2017-12-24T07:33:45.471Z,0
2017-12-24T07:34:45.993Z,0
2017-12-24T07:35:45.918Z,0
2017-12-24T07:36:46.068Z,0
2017-12-24T07:37:46.927Z,5
2017-12-24T07:38:46.622Z,5
2017-12-24T07:39:46.594Z,5
2017-12-24T07:40:47.005Z,5
2017-12-24T07:41:47.255Z,5
2017-12-24T07:42:47.932Z,5
2017-12-24T07:43:48.033Z,5
2017-12-24T07:44:48.276Z,5
2017-12-24T07:45:47.798Z,5
2017-12-24T07:46:48.375Z,5
2017-12-24T07:47:47.773Z,5
2017-12-24T07:48:48.044Z,5
2017-12-24T07:49:48.638Z,5
2017-12-24T07:50:48.696Z,5
2017-12-24T07:51:48.175Z,10
2017-12-24T07:52:48.642Z,10
2017-12-24T07:53:49.353Z,10
2017-12-24T07:54:48.828Z,10
2017-12-24T07:55:49.140Z,10
2017-12-24T07:56:49.854Z,10
2017-12-24T07:57:49.868Z,10
2017-12-24T07:58:50.020Z,10
2017-12-24T07:59:50.445Z,10
2017-12-24T08:00:50.198Z,10
2017-12-24T08:01:50.664Z,10
2017-12-24T08:02:50.568Z,10
2017-12-24T08:03:51.087Z,10
2017-12-24T08:04:51.623Z,10
2017-12-24T08:05:51.826Z,15
2017-12-24T08:06:51.986Z,15
2017-12-24T08:07:52.382Z,15
2017-12-24T08:08:52.822Z,15
2017-12-24T08:09:53.227Z,15
2017-12-24T08:10:53.423Z,15
2017-12-24T08:11:53.982Z,15
2017-12-24T08:12:54.387Z,15
2017-12-24T08:13:53.843Z,15
2017-12-24T08:14:54.536Z,15
2017-12-24T08:15:54.020Z,15
2017-12-24T08:16:54.002Z,15
2017-12-24T08:17:54.452Z,15
2017-12-24T08:18:55.068Z,15
2017-12-24T08:19:54.859Z,15
2017-12-24T08:20:55.250Z,15
2017-12-24T08:21:55.415Z,20
2017-12-24T08:22:55.673Z,15
2017-12-24T08:23:56.115Z,15
2017-12-24T08:24:56.057Z,15
2017-12-24T08:25:56.313Z,15
2017-12-24T08:26:56.231Z,15
2017-12-24T08:27:56.776Z,15
2017-12-24T08:28:57.435Z,20
2017-12-24T08:29:57.764Z,15
2017-12-24T08:30:57.366Z,15
2017-12-24T08:31:57.323Z,15
2017-12-24T08:32:57.775Z,15
2017-12-24T08:33:57.972Z,20
2017-12-24T08:34:58.406Z,20
2017-12-24T08:35:59.114Z,20
2017-12-24T08:36:59.548Z,25
2017-12-24T08:37:59.438Z,25
2017-12-24T08:38:59.871Z,25
2017-12-24T08:40:00.804Z,25
2017-12-24T08:41:00.349Z,25
2017-12-24T08:42:00.015Z,30
2017-12-24T08:43:00.556Z,25
2017-12-24T08:44:00.573Z,30
2017-12-24T08:45:00.863Z,30
2017-12-24T08:46:01.295Z,35
2017-12-24T08:47:01.751Z,40
2017-12-24T08:48:02.130Z,40
2017-12-24T08:49:01.673Z,40
2017-12-24T08:50:02.350Z,35
2017-12-24T08:51:02.386Z,35
2017-12-24T08:52:02.105Z,35
2017-12-24T08:53:02.262Z,35
2017-12-24T08:54:02.169Z,40
2017-12-24T08:55:02.480Z,35
2017-12-24T08:56:02.028Z,30
2017-12-24T08:57:02.004Z,30
2017-12-24T08:58:02.589Z,30
2017-12-24T08:59:02.295Z,35
2017-12-24T09:00:02.983Z,30
2017-12-24T09:01:03.236Z,25
2017-12-24T09:02:03.393Z,30
2017-12-24T09:03:03.179Z,30
2017-12-24T09:04:03.488Z,35
2017-12-24T09:05:03.922Z,40
2017-12-24T09:06:04.193Z,45
2017-12-24T09:07:03.850Z,50
2017-12-24T09:08:04.281Z,55
2017-12-24T09:09:04.295Z,60
2017-12-24T09:10:04.956Z,50
2017-12-24T09:11:04.112Z,50
2017-12-24T09:12:04.488Z,45
2017-12-24T09:13:04.281Z,45
2017-12-24T09:14:05.150Z,35
2017-12-24T09:15:05.117Z,35
2017-12-24T09:16:04.284Z,35
2017-12-24T09:17:04.860Z,40
2017-12-24T09:18:05.881Z,35
2017-12-24T09:19:05.416Z,30
2017-12-24T09:20:05.349Z,30
2017-12-24T09:21:06.092Z,30
2017-12-24T09:22:05.810Z,30
2017-12-24T09:23:06.151Z,30
2017-12-24T09:24:06.107Z,30
2017-12-24T09:25:05.616Z,40
2017-12-24T09:26:05.823Z,40
2017-12-24T09:27:06.590Z,35
2017-12-24T09:28:06.312Z,35
2017-12-24T09:29:06.549Z,35
2017-12-24T09:30:06.834Z,35
2017-12-24T09:31:06.607Z,35
2017-12-24T09:32:06.812Z,30
2017-12-24T09:33:06.776Z,35
2017-12-24T09:34:07.418Z,35
2017-12-24T09:35:07.525Z,35
2017-12-24T09:36:07.306Z,35
2017-12-24T09:37:07.008Z,35
2017-12-24T09:38:07.713Z,35
2017-12-24T09:39:07.227Z,30
2017-12-24T09:40:07.831Z,25
2017-12-24T09:41:07.755Z,25
2017-12-24T09:42:07.085Z,25
2017-12-24T09:43:07.304Z,25
2017-12-24T09:44:07.879Z,25
2017-12-24T09:45:07.912Z,25
2017-12-24T09:46:07.678Z,30
2017-12-24T09:47:08.111Z,30
2017-12-24T09:48:08.128Z,30
2017-12-24T09:49:08.516Z,30
2017-12-24T09:50:08.643Z,30
2017-12-24T09:51:08.885Z,30
2017-12-24T09:52:08.775Z,30
2017-12-24T09:53:08.859Z,25
2017-12-24T09:54:09.119Z,25
2017-12-24T09:55:09.715Z,20
2017-12-24T09:56:09.438Z,25
2017-12-24T09:57:10.115Z,25
2017-12-24T09:58:10.111Z,25
2017-12-24T09:59:09.713Z,25
2017-12-24T10:00:09.828Z,35
2017-12-24T10:01:11.376Z,45
2017-12-24T10:02:10.117Z,35
2017-12-24T10:03:10.587Z,40
2017-12-24T10:04:10.579Z,50
2017-12-24T10:05:11.314Z,50
2017-12-24T10:06:11.968Z,45
2017-12-24T10:07:11.762Z,45
2017-12-24T10:08:11.869Z,45
2017-12-24T10:09:11.455Z,45
2017-12-24T10:10:12.593Z,40
2017-12-24T10:11:12.492Z,40
2017-12-24T10:12:11.961Z,50
2017-12-24T10:13:12.630Z,45
2017-12-24T10:14:12.410Z,45
2017-12-24T10:15:12.885Z,45
2017-12-24T10:16:12.434Z,45
2017-12-24T10:17:12.630Z,45
2017-12-24T10:18:13.054Z,40
2017-12-24T10:19:13.777Z,45
2017-12-24T10:20:13.690Z,40
2017-12-24T10:21:14.491Z,45
2017-12-24T10:22:13.958Z,50
2017-12-24T10:23:14.317Z,50
2017-12-24T10:24:14.687Z,50
2017-12-24T10:25:14.758Z,50
2017-12-24T10:26:14.523Z,50
2017-12-24T10:27:14.652Z,50
2017-12-24T10:28:15.110Z,55
2017-12-24T10:29:15.051Z,50
2017-12-24T10:30:15.455Z,50
2017-12-24T10:31:15.888Z,45
2017-12-24T10:32:16.191Z,45
2017-12-24T10:33:16.425Z,45
2017-12-24T10:34:16.414Z,45
2017-12-24T10:35:16.940Z,45
2017-12-24T10:36:17.177Z,45
2017-12-24T10:37:16.956Z,45
2017-12-24T10:38:17.365Z,45
2017-12-24T10:39:17.893Z,50
2017-12-24T10:40:17.422Z,45
2017-12-24T10:41:17.834Z,50
2017-12-24T10:42:18.680Z,45
2017-12-24T10:43:18.677Z,45
2017-12-24T10:44:18.603Z,45
2017-12-24T10:45:18.762Z,45
2017-12-24T10:46:19.652Z,45
2017-12-24T10:47:19.790Z,45
2017-12-24T10:48:19.232Z,40
2017-12-24T10:49:19.128Z,40
2017-12-24T10:50:19.491Z,45
2017-12-24T10:51:20.158Z,40
2017-12-24T10:52:19.919Z,45
2017-12-24T10:53:20.025Z,45
2017-12-24T10:54:20.562Z,40
2017-12-24T10:55:20.261Z,40
2017-12-24T10:56:20.433Z,40
2017-12-24T10:57:20.868Z,40
2017-12-24T10:58:20.758Z,40
2017-12-24T10:59:21.057Z,40
2017-12-24T11:00:21.297Z,40
2017-12-24T11:01:21.535Z,45
2017-12-24T11:02:21.750Z,45
2017-12-24T11:03:21.927Z,45
2017-12-24T11:04:22.590Z,40
2017-12-24T11:05:22.971Z,45
2017-12-24T11:06:22.492Z,50
2017-12-24T11:07:22.920Z,50
2017-12-24T11:08:23.090Z,50
2017-12-24T11:09:23.790Z,60
2017-12-24T11:10:23.853Z,50
2017-12-24T11:11:23.871Z,55
2017-12-24T11:12:23.765Z,60
2017-12-24T11:13:24.387Z,55
2017-12-24T11:14:24.496Z,60
2017-12-24T11:15:24.473Z,55
2017-12-24T11:16:24.917Z,60
2017-12-24T11:17:24.731Z,70
2017-12-24T11:18:25.430Z,55
2017-12-24T11:19:25.169Z,55
2017-12-24T11:20:25.270Z,60
2017-12-24T11:21:25.679Z,60
2017-12-24T11:22:25.843Z,60
2017-12-24T11:23:25.845Z,65
2017-12-24T11:24:26.074Z,65
2017-12-24T11:25:26.010Z,65
2017-12-24T11:26:26.389Z,65
2017-12-24T11:27:26.530Z,65
2017-12-24T11:28:27.211Z,65
2017-12-24T11:29:26.980Z,65
2017-12-24T11:30:26.896Z,60
2017-12-24T11:31:27.312Z,55
2017-12-24T11:32:27.764Z,50
2017-12-24T11:33:27.740Z,50
2017-12-24T11:34:27.007Z,50
2017-12-24T11:35:27.595Z,45
2017-12-24T11:36:27.559Z,35
2017-12-24T11:37:28.004Z,35
2017-12-24T11:38:28.548Z,30
2017-12-24T11:39:28.510Z,30
2017-12-24T11:40:28.905Z,30
2017-12-24T11:41:29.327Z,30
2017-12-24T11:42:28.952Z,35
2017-12-24T11:43:29.391Z,45
2017-12-24T11:44:29.200Z,45
2017-12-24T11:45:29.586Z,50
2017-12-24T11:46:29.682Z,50
2017-12-24T11:47:29.383Z,55
2017-12-24T11:48:29.274Z,55
2017-12-24T11:49:29.538Z,50
2017-12-24T11:50:29.629Z,50
2017-12-24T11:51:30.373Z,55
2017-12-24T11:52:29.690Z,50
2017-12-24T11:53:29.901Z,55
2017-12-24T11:54:30.589Z,55
2017-12-24T11:55:30.318Z,45
2017-12-24T11:56:30.756Z,50
2017-12-24T11:57:30.478Z,50
2017-12-24T11:58:30.918Z,50
2017-12-24T11:59:31.146Z,50
2017-12-24T12:00:31.277Z,55
2017-12-24T12:01:31.274Z,65
2017-12-24T12:02:31.400Z,55
2017-12-24T12:03:30.944Z,50
2017-12-24T12:04:31.363Z,60
2017-12-24T12:05:31.816Z,60
2017-12-24T12:06:31.800Z,55
2017-12-24T12:07:32.015Z,45
2017-12-24T12:08:31.476Z,45
2017-12-24T12:09:31.750Z,55
2017-12-24T12:10:32.166Z,55
2017-12-24T12:11:31.779Z,60
2017-12-24T12:12:32.350Z,55
2017-12-24T12:13:32.986Z,50
2017-12-24T12:14:33.407Z,45
2017-12-24T12:15:32.661Z,45
2017-12-24T12:16:32.926Z,45
2017-12-24T12:17:33.577Z,55
2017-12-24T12:18:33.254Z,50
2017-12-24T12:19:33.709Z,50
2017-12-24T12:20:33.671Z,60
2017-12-24T12:21:33.885Z,65
2017-12-24T12:22:34.285Z,60
2017-12-24T12:23:34.096Z,75
2017-12-24T12:24:34.495Z,75
2017-12-24T12:25:34.953Z,70
2017-12-24T12:26:35.023Z,60
2017-12-24T12:27:34.442Z,65
2017-12-24T12:28:35.263Z,75
2017-12-24T12:29:35.257Z,75
2017-12-24T12:30:35.697Z,70
2017-12-24T12:31:36.451Z,75
2017-12-24T12:32:35.996Z,70
2017-12-24T12:33:35.959Z,70
2017-12-24T12:34:36.469Z,60
2017-12-24T12:35:36.263Z,60
2017-12-24T12:36:36.364Z,55
2017-12-24T12:37:36.868Z,55
2017-12-24T12:38:36.556Z,55
2017-12-24T12:39:36.718Z,45
2017-12-24T12:40:36.821Z,45
2017-12-24T12:41:37.215Z,50
2017-12-24T12:42:37.350Z,50
2017-12-24T12:43:37.701Z,50
2017-12-24T12:44:38.089Z,50
2017-12-24T12:45:38.230Z,50
2017-12-24T12:46:38.608Z,50
2017-12-24T12:47:39.240Z,45
2017-12-24T12:48:39.292Z,45
2017-12-24T12:49:39.376Z,50
2017-12-24T12:50:39.352Z,45
2017-12-24T12:51:39.847Z,55
2017-12-24T12:52:40.019Z,55
2017-12-24T12:53:40.424Z,55
2017-12-24T12:54:40.602Z,50
2017-12-24T12:55:41.215Z,50
2017-12-24T12:56:40.811Z,45
2017-12-24T12:57:41.235Z,50
2017-12-24T12:58:41.648Z,60
2017-12-24T12:59:42.329Z,55
2017-12-24T13:00:42.252Z,50
2017-12-24T13:01:42.133Z,50
2017-12-24T13:02:42.566Z,55
2017-12-24T13:03:42.780Z,50
2017-12-24T13:04:42.971Z,55
2017-12-24T13:05:43.237Z,60
2017-12-24T13:06:43.133Z,65
2017-12-24T13:07:43.413Z,70
2017-12-24T13:08:44.072Z,60
2017-12-24T13:09:43.829Z,60
2017-12-24T13:10:43.513Z,65
2017-12-24T13:11:44.271Z,65
2017-12-24T13:12:44.070Z,60
2017-12-24T13:13:44.524Z,50
2017-12-24T13:14:44.936Z,55
2017-12-24T13:15:44.736Z,40
2017-12-24T13:16:45.473Z,35
2017-12-24T13:17:44.996Z,30
2017-12-24T13:18:45.466Z,35
2017-12-24T13:19:45.581Z,35
2017-12-24T13:20:46.262Z,35
2017-12-24T13:21:45.524Z,40
2017-12-24T13:22:46.374Z,40
2017-12-24T13:23:45.958Z,45
2017-12-24T13:24:46.218Z,50
2017-12-24T13:25:46.179Z,45
2017-12-24T13:26:46.409Z,40
2017-12-24T13:27:46.309Z,35
2017-12-24T13:28:47.183Z,35
2017-12-24T13:29:46.826Z,30
2017-12-24T13:30:47.076Z,35
2017-12-24T13:31:47.265Z,35
2017-12-24T13:32:47.481Z,35
2017-12-24T13:33:47.572Z,30
2017-12-24T13:34:47.703Z,35
2017-12-24T13:35:49.521Z,35
2017-12-24T13:36:48.632Z,35
2017-12-24T13:37:48.197Z,35
2017-12-24T13:38:48.935Z,35
2017-12-24T13:39:48.682Z,35
2017-12-24T13:40:48.780Z,35
2017-12-24T13:41:48.690Z,35
2017-12-24T13:42:49.131Z,35
2017-12-24T13:43:49.114Z,35
2017-12-24T13:44:49.067Z,35
2017-12-24T13:45:49.621Z,35
2017-12-24T13:46:49.781Z,30
2017-12-24T13:47:50.011Z,35
2017-12-24T13:48:49.983Z,30
2017-12-24T13:49:50.450Z,30
2017-12-24T13:50:51.173Z,30
2017-12-24T13:51:51.025Z,30
2017-12-24T13:52:51.183Z,25
2017-12-24T13:53:51.696Z,25
2017-12-24T13:54:51.404Z,25
2017-12-24T13:55:51.409Z,25
2017-12-24T13:56:51.871Z,25
2017-12-24T13:57:52.326Z,25
2017-12-24T13:58:52.084Z,25
2017-12-24T13:59:52.740Z,25
2017-12-24T14:00:52.637Z,20
2017-12-24T14:01:52.876Z,25
2017-12-24T14:02:53.283Z,20
2017-12-24T14:03:53.447Z,20
2017-12-24T14:04:53.844Z,20
2017-12-24T14:05:53.962Z,15
2017-12-24T14:06:54.610Z,15
2017-12-24T14:07:54.446Z,15
2017-12-24T14:08:54.602Z,15
2017-12-24T14:09:54.664Z,10
2017-12-24T14:10:55.184Z,15
2017-12-24T14:11:55.168Z,15
2017-12-24T14:12:55.558Z,10
2017-12-24T14:13:55.704Z,10
2017-12-24T14:14:56.056Z,10
2017-12-24T14:15:55.614Z,10
2017-12-24T14:16:56.275Z,10
2017-12-24T14:17:55.537Z,10
2017-12-24T14:18:56.101Z,10
2017-12-24T14:19:56.539Z,10
2017-12-24T14:20:56.943Z,10
2017-12-24T14:21:56.719Z,5
2017-12-24T14:22:56.923Z,5
2017-12-24T14:23:56.666Z,5
2017-12-24T14:24:56.998Z,5
2017-12-24T14:25:57.136Z,5
2017-12-24T14:26:57.009Z,5
2017-12-24T14:27:57.410Z,5
2017-12-24T14:28:57.869Z,5
2017-12-24T14:29:57.095Z,5
2017-12-24T14:30:56.869Z,10
2017-12-24T14:31:57.366Z,5
2017-12-24T14:32:57.826Z,5
2017-12-24T14:33:58.155Z,5
2017-12-24T14:34:58.110Z,5
2017-12-24T14:35:57.672Z,5